Shannon, IL (61078)

6:29 AM CDT on August 31, 2015 (GMT -0500)
Albertus | | Change Station
CLOSE
Current Station
Airport
Location: Freeport,
Elevation: 860 ft
Nearby Weather Stations
Active Advisory: Dense Fog Advisory

Elev 860 ft 42.25 °N, 89.58 °W | Updated 34 minutes ago

Fog
Fog
55 °F
Feels Like 55 °F
N
0
Wind Variable Wind from North

Today
High -- | Low -- °F
--% Chance of Precip.
Yesterday
High -- | Low -- °F
Precip. -- in
6:23 AM 7:34 PM
Waning Gibbous, 96% visible
Pressure 30.06 in
Visibility 1.2 miles
Clouds Overcast 100 ft
Dew Point 55 °F
Humidity 99%
Rainfall 0.00 in
Snow Depth Not available.
UV 0 out of 12
Pollen 10.70 out of 12
Air Quality Not available.
Flu Activity Not available.
METAR KFEP 311055Z AUTO 00000KT 1 1/4SM BR OVC001 13/13 A3006 RMK AO2 VIS 3/4V2 1/2 T01270126
Pressure 30.06 in
Visibility 1.2 miles
Clouds Overcast 100 ft
Dew Point 55 °F
Humidity 99%
Rainfall 0.00 in
Snow Depth Not available.
UV 0 out of 12
Pollen 10.70 out of 12
Air Quality Not available.
Flu Activity Not available.
METAR KFEP 311055Z AUTO 00000KT 1 1/4SM BR OVC001 13/13 A3006 RMK AO2 VIS 3/4V2 1/2 T01270126

10-Day Weather Forecast

×

Almanac

Astronomy

Aug. 31, 2015 Rise Set
Actual Time
Civil Twilight
Nautical Twilight
Astronomical Twilight
Moon
Length of Visible Light
Length of Day
Tomorrow will be .
, % of the Moon is Illuminated

Today's Extremes

State Highs State Lows

Community

WunderPhotos

Upload Photos

1,851,217 photos uploaded!

WunderBlogs® & News

Nearby

Air Quality

  Air Quality AQ Index Pollutant
Not available.

Snow Depth

Station Depth Elevation

Earthquake Activity

City Distance Mag. Time & Date
Minimum magnitude displayed is 2.5.

Coastal Water Temperatures

Place Temperature

Stations

Nearby Weather Stations

Station Location Temp. Windchill Dew Point Humidity Wind Precip. Elev Updated Type
                   
Dense Fog Advisory
Statement as of 4:10 AM CDT on August 31, 2015

... Dense fog advisory in effect until 9 am CDT this morning...

The National Weather Service in Quad Cities has issued a dense
fog advisory... which is in effect until 9 am CDT this morning.

* Visibilities... one quarter mile or less at times.

* Timing... developing around midnight and continuing through the
early morning commute. Visibilities improving after 9am.

* Impacts... travel will be difficult and potentially dangerous
with very limited sight distance between vehicles and other
objects.

Precautionary/preparedness actions...

A dense fog advisory means visibilities will frequently be
reduced to less than one quarter mile. If driving... slow down...
use your headlights... and leave plenty of distance ahead of you.